sensor_id;sensor_type;location;lat;lon;timestamp;temperature;humidity
61807;DHT22;47726;52.766;6.606;2022-10-31T00:00:59;14.40;99.90
61807;DHT22;47726;52.766;6.606;2022-10-31T00:03:25;14.40;99.90
61807;DHT22;47726;52.766;6.606;2022-10-31T00:05:52;14.40;99.90
61807;DHT22;47726;52.766;6.606;2022-10-31T00:08:18;14.30;99.90
61807;DHT22;47726;52.766;6.606;2022-10-31T00:10:45;14.30;99.90
61807;DHT22;47726;52.766;6.606;2022-10-31T00:13:12;14.30;99.90
61807;DHT22;47726;52.766;6.606;2022-10-31T00:15:39;14.30;99.90
61807;DHT22;47726;52.766;6.606;2022-10-31T00:18:07;14.30;99.90
61807;DHT22;47726;52.766;6.606;2022-10-31T00:20:33;14.20;99.90
61807;DHT22;47726;52.766;6.606;2022-10-31T00:22:59;14.20;99.90
61807;DHT22;47726;52.766;6.606;2022-10-31T00:25:26;14.20;99.90
61807;DHT22;47726;52.766;6.606;2022-10-31T00:27:52;14.20;99.90
61807;DHT22;47726;52.766;6.606;2022-10-31T00:30:17;14.20;99.90
61807;DHT22;47726;52.766;6.606;2022-10-31T00:32:43;14.10;99.90
61807;DHT22;47726;52.766;6.606;2022-10-31T00:35:09;14.10;99.90
61807;DHT22;47726;52.766;6.606;2022-10-31T00:37:34;14.10;99.90
61807;DHT22;47726;52.766;6.606;2022-10-31T00:40:00;14.10;99.90
61807;DHT22;47726;52.766;6.606;2022-10-31T00:42:25;14.10;99.90
61807;DHT22;47726;52.766;6.606;2022-10-31T00:44:51;14.00;99.90
61807;DHT22;47726;52.766;6.606;2022-10-31T00:47:16;14.00;99.90
61807;DHT22;47726;52.766;6.606;2022-10-31T00:49:42;14.00;99.90
61807;DHT22;47726;52.766;6.606;2022-10-31T00:52:08;14.00;99.90
61807;DHT22;47726;52.766;6.606;2022-10-31T00:54:33;14.00;99.90
61807;DHT22;47726;52.766;6.606;2022-10-31T00:56:59;13.90;99.90
61807;DHT22;47726;52.766;6.606;2022-10-31T00:59:24;13.90;99.90
61807;DHT22;47726;52.766;6.606;2022-10-31T01:01:50;13.80;99.90
61807;DHT22;47726;52.766;6.606;2022-10-31T01:04:15;13.80;99.90
61807;DHT22;47726;52.766;6.606;2022-10-31T01:06:41;13.70;99.90
61807;DHT22;47726;52.766;6.606;2022-10-31T01:09:07;13.70;99.90
61807;DHT22;47726;52.766;6.606;2022-10-31T01:11:32;13.70;99.90
61807;DHT22;47726;52.766;6.606;2022-10-31T01:13:58;13.70;99.90
61807;DHT22;47726;52.766;6.606;2022-10-31T01:16:25;13.60;99.90
61807;DHT22;47726;52.766;6.606;2022-10-31T01:18:51;13.60;99.90
61807;DHT22;47726;52.766;6.606;2022-10-31T01:21:20;13.60;99.90
61807;DHT22;47726;52.766;6.606;2022-10-31T01:23:46;13.60;99.90
61807;DHT22;47726;52.766;6.606;2022-10-31T01:26:15;13.60;99.90
61807;DHT22;47726;52.766;6.606;2022-10-31T01:28:53;13.60;99.90
61807;DHT22;47726;52.766;6.606;2022-10-31T01:31:21;13.60;99.90
61807;DHT22;47726;52.766;6.606;2022-10-31T01:33:47;13.60;99.90
61807;DHT22;47726;52.766;6.606;2022-10-31T01:36:17;13.50;99.90
61807;DHT22;47726;52.766;6.606;2022-10-31T01:38:44;13.60;99.90
61807;DHT22;47726;52.766;6.606;2022-10-31T01:41:12;13.50;99.90
61807;DHT22;47726;52.766;6.606;2022-10-31T01:43:49;13.50;99.90
61807;DHT22;47726;52.766;6.606;2022-10-31T01:46:20;13.50;99.90
61807;DHT22;47726;52.766;6.606;2022-10-31T01:48:46;13.50;99.90
61807;DHT22;47726;52.766;6.606;2022-10-31T01:51:13;13.50;99.90
61807;DHT22;47726;52.766;6.606;2022-10-31T01:53:41;13.50;99.90
61807;DHT22;47726;52.766;6.606;2022-10-31T01:56:08;13.50;99.90
61807;DHT22;47726;52.766;6.606;2022-10-31T01:58:34;13.50;99.90
61807;DHT22;47726;52.766;6.606;2022-10-31T02:01:01;13.50;99.90
61807;DHT22;47726;52.766;6.606;2022-10-31T02:03:28;13.40;99.90
61807;DHT22;47726;52.766;6.606;2022-10-31T02:05:55;13.40;99.90
61807;DHT22;47726;52.766;6.606;2022-10-31T02:08:29;13.40;99.90
61807;DHT22;47726;52.766;6.606;2022-10-31T02:11:00;13.40;99.90
61807;DHT22;47726;52.766;6.606;2022-10-31T02:13:28;13.40;99.90
61807;DHT22;47726;52.766;6.606;2022-10-31T02:15:56;13.40;99.90
61807;DHT22;47726;52.766;6.606;2022-10-31T02:18:23;13.40;99.90
61807;DHT22;47726;52.766;6.606;2022-10-31T02:26:43;13.30;99.90
61807;DHT22;47726;52.766;6.606;2022-10-31T02:40:33;13.20;99.90
61807;DHT22;47726;52.766;6.606;2022-10-31T02:43:08;13.20;99.90
61807;DHT22;47726;52.766;6.606;2022-10-31T02:45:57;13.10;99.90
61807;DHT22;47726;52.766;6.606;2022-10-31T02:48:28;13.10;99.90
61807;DHT22;47726;52.766;6.606;2022-10-31T02:51:03;13.10;99.90
61807;DHT22;47726;52.766;6.606;2022-10-31T02:53:34;13.00;99.90
61807;DHT22;47726;52.766;6.606;2022-10-31T02:56:05;13.00;99.90
61807;DHT22;47726;52.766;6.606;2022-10-31T02:58:37;13.00;99.90
61807;DHT22;47726;52.766;6.606;2022-10-31T03:06:30;12.80;99.90
61807;DHT22;47726;52.766;6.606;2022-10-31T03:09:23;12.80;99.90
61807;DHT22;47726;52.766;6.606;2022-10-31T03:11:58;12.80;99.90
61807;DHT22;47726;52.766;6.606;2022-10-31T03:14:46;12.70;99.90
61807;DHT22;47726;52.766;6.606;2022-10-31T03:17:24;12.70;99.90
61807;DHT22;47726;52.766;6.606;2022-10-31T03:19:53;12.60;99.90
61807;DHT22;47726;52.766;6.606;2022-10-31T03:22:26;12.60;99.90
61807;DHT22;47726;52.766;6.606;2022-10-31T03:24:53;12.60;99.90
61807;DHT22;47726;52.766;6.606;2022-10-31T03:27:28;12.50;99.90
61807;DHT22;47726;52.766;6.606;2022-10-31T03:29:57;12.50;99.90
61807;DHT22;47726;52.766;6.606;2022-10-31T03:32:32;12.50;99.90
61807;DHT22;47726;52.766;6.606;2022-10-31T03:35:02;12.40;99.90
61807;DHT22;47726;52.766;6.606;2022-10-31T03:37:32;12.40;99.90
61807;DHT22;47726;52.766;6.606;2022-10-31T03:39:59;12.40;99.90
61807;DHT22;47726;52.766;6.606;2022-10-31T03:42:28;12.40;99.90
61807;DHT22;47726;52.766;6.606;2022-10-31T03:45:14;12.40;99.90
61807;DHT22;47726;52.766;6.606;2022-10-31T03:47:41;12.30;99.90
61807;DHT22;47726;52.766;6.606;2022-10-31T03:50:10;12.30;99.90
61807;DHT22;47726;52.766;6.606;2022-10-31T03:52:57;12.30;99.90
61807;DHT22;47726;52.766;6.606;2022-10-31T03:55:46;12.20;99.90
61807;DHT22;47726;52.766;6.606;2022-10-31T03:58:43;12.20;99.90
61807;DHT22;47726;52.766;6.606;2022-10-31T04:01:11;12.20;99.90
61807;DHT22;47726;52.766;6.606;2022-10-31T04:03:41;12.10;99.90
61807;DHT22;47726;52.766;6.606;2022-10-31T04:06:10;12.10;99.90
61807;DHT22;47726;52.766;6.606;2022-10-31T04:08:42;12.00;99.90
61807;DHT22;47726;52.766;6.606;2022-10-31T04:11:11;12.00;99.90
61807;DHT22;47726;52.766;6.606;2022-10-31T04:13:39;11.90;99.90
61807;DHT22;47726;52.766;6.606;2022-10-31T04:16:06;11.90;99.90
61807;DHT22;47726;52.766;6.606;2022-10-31T04:18:33;11.90;99.90
61807;DHT22;47726;52.766;6.606;2022-10-31T04:21:06;11.80;99.90
61807;DHT22;47726;52.766;6.606;2022-10-31T04:23:33;11.80;99.90
61807;DHT22;47726;52.766;6.606;2022-10-31T04:25:59;11.80;99.90
61807;DHT22;47726;52.766;6.606;2022-10-31T04:28:25;11.80;99.90
61807;DHT22;47726;52.766;6.606;2022-10-31T04:30:51;11.80;99.90
61807;DHT22;47726;52.766;6.606;2022-10-31T04:33:17;11.80;99.90
61807;DHT22;47726;52.766;6.606;2022-10-31T04:35:43;11.80;99.90
61807;DHT22;47726;52.766;6.606;2022-10-31T04:38:08;11.70;99.90
61807;DHT22;47726;52.766;6.606;2022-10-31T04:40:34;11.70;99.90
61807;DHT22;47726;52.766;6.606;2022-10-31T04:42:59;11.70;99.90
61807;DHT22;47726;52.766;6.606;2022-10-31T04:45:25;11.70;99.90
61807;DHT22;47726;52.766;6.606;2022-10-31T04:47:51;11.60;99.90
61807;DHT22;47726;52.766;6.606;2022-10-31T04:50:16;11.50;99.90
61807;DHT22;47726;52.766;6.606;2022-10-31T04:52:43;11.50;99.90
61807;DHT22;47726;52.766;6.606;2022-10-31T04:55:09;11.40;99.90
61807;DHT22;47726;52.766;6.606;2022-10-31T04:57:46;11.40;99.90
61807;DHT22;47726;52.766;6.606;2022-10-31T05:00:14;11.40;99.90
61807;DHT22;47726;52.766;6.606;2022-10-31T05:02:44;11.40;99.90
61807;DHT22;47726;52.766;6.606;2022-10-31T05:05:10;11.30;99.90
61807;DHT22;47726;52.766;6.606;2022-10-31T05:07:40;11.30;99.90
61807;DHT22;47726;52.766;6.606;2022-10-31T05:10:11;11.30;99.90
61807;DHT22;47726;52.766;6.606;2022-10-31T05:12:38;11.30;99.90
61807;DHT22;47726;52.766;6.606;2022-10-31T05:15:04;11.30;99.90
61807;DHT22;47726;52.766;6.606;2022-10-31T05:17:31;11.20;99.90
61807;DHT22;47726;52.766;6.606;2022-10-31T05:19:57;11.20;99.90
61807;DHT22;47726;52.766;6.606;2022-10-31T05:22:22;11.20;99.90
61807;DHT22;47726;52.766;6.606;2022-10-31T05:24:48;11.10;99.90
61807;DHT22;47726;52.766;6.606;2022-10-31T05:27:13;11.10;99.90
61807;DHT22;47726;52.766;6.606;2022-10-31T05:29:39;11.00;99.90
61807;DHT22;47726;52.766;6.606;2022-10-31T05:32:04;11.00;99.90
61807;DHT22;47726;52.766;6.606;2022-10-31T05:34:30;11.00;99.90
61807;DHT22;47726;52.766;6.606;2022-10-31T05:36:55;10.90;99.90
61807;DHT22;47726;52.766;6.606;2022-10-31T05:39:21;10.90;99.90
61807;DHT22;47726;52.766;6.606;2022-10-31T05:41:46;10.90;99.90
61807;DHT22;47726;52.766;6.606;2022-10-31T05:44:12;10.90;99.90
61807;DHT22;47726;52.766;6.606;2022-10-31T05:46:37;10.90;99.90
61807;DHT22;47726;52.766;6.606;2022-10-31T05:49:03;10.90;99.90
61807;DHT22;47726;52.766;6.606;2022-10-31T05:51:28;10.80;99.90
61807;DHT22;47726;52.766;6.606;2022-10-31T05:53:54;10.80;99.90
61807;DHT22;47726;52.766;6.606;2022-10-31T05:56:20;10.80;99.90
61807;DHT22;47726;52.766;6.606;2022-10-31T05:58:45;10.80;99.90
61807;DHT22;47726;52.766;6.606;2022-10-31T06:01:11;10.80;99.90
61807;DHT22;47726;52.766;6.606;2022-10-31T06:03:36;10.80;99.90
61807;DHT22;47726;52.766;6.606;2022-10-31T06:06:02;10.70;99.90
61807;DHT22;47726;52.766;6.606;2022-10-31T06:08:27;10.70;99.90
61807;DHT22;47726;52.766;6.606;2022-10-31T06:10:53;10.70;99.90
61807;DHT22;47726;52.766;6.606;2022-10-31T06:13:19;10.80;99.90
61807;DHT22;47726;52.766;6.606;2022-10-31T06:15:44;10.70;99.90
61807;DHT22;47726;52.766;6.606;2022-10-31T06:18:10;10.80;99.90
61807;DHT22;47726;52.766;6.606;2022-10-31T06:20:36;10.70;99.90
61807;DHT22;47726;52.766;6.606;2022-10-31T06:23:02;10.80;99.90
61807;DHT22;47726;52.766;6.606;2022-10-31T06:25:28;10.80;99.90
61807;DHT22;47726;52.766;6.606;2022-10-31T06:27:54;10.70;99.90
61807;DHT22;47726;52.766;6.606;2022-10-31T06:30:20;10.70;99.90
61807;DHT22;47726;52.766;6.606;2022-10-31T06:32:45;10.70;99.90
61807;DHT22;47726;52.766;6.606;2022-10-31T06:35:11;10.70;99.90
61807;DHT22;47726;52.766;6.606;2022-10-31T06:37:37;10.70;99.90
61807;DHT22;47726;52.766;6.606;2022-10-31T06:40:03;10.70;99.90
61807;DHT22;47726;52.766;6.606;2022-10-31T06:42:29;10.70;99.90
61807;DHT22;47726;52.766;6.606;2022-10-31T06:44:54;10.70;99.90
61807;DHT22;47726;52.766;6.606;2022-10-31T06:47:20;10.60;99.90
61807;DHT22;47726;52.766;6.606;2022-10-31T06:49:45;10.70;99.90
61807;DHT22;47726;52.766;6.606;2022-10-31T06:52:11;10.70;99.90
61807;DHT22;47726;52.766;6.606;2022-10-31T06:54:36;10.60;99.90
61807;DHT22;47726;52.766;6.606;2022-10-31T06:57:02;10.70;99.90
61807;DHT22;47726;52.766;6.606;2022-10-31T06:59:27;10.70;99.90
61807;DHT22;47726;52.766;6.606;2022-10-31T07:01:53;10.70;99.90
61807;DHT22;47726;52.766;6.606;2022-10-31T07:04:18;10.70;99.90
61807;DHT22;47726;52.766;6.606;2022-10-31T07:06:44;10.70;99.90
61807;DHT22;47726;52.766;6.606;2022-10-31T07:09:10;10.70;99.90
61807;DHT22;47726;52.766;6.606;2022-10-31T07:11:35;10.70;99.90
61807;DHT22;47726;52.766;6.606;2022-10-31T07:14:01;10.70;99.90
61807;DHT22;47726;52.766;6.606;2022-10-31T07:16:26;10.70;99.90
61807;DHT22;47726;52.766;6.606;2022-10-31T07:18:52;10.70;99.90
61807;DHT22;47726;52.766;6.606;2022-10-31T07:21:17;10.70;99.90
61807;DHT22;47726;52.766;6.606;2022-10-31T07:23:43;10.80;99.90
61807;DHT22;47726;52.766;6.606;2022-10-31T07:26:09;10.70;99.90
61807;DHT22;47726;52.766;6.606;2022-10-31T07:28:35;10.80;99.90
61807;DHT22;47726;52.766;6.606;2022-10-31T07:31:01;10.80;99.90
61807;DHT22;47726;52.766;6.606;2022-10-31T07:33:26;10.80;99.90
61807;DHT22;47726;52.766;6.606;2022-10-31T07:35:53;10.80;99.90
61807;DHT22;47726;52.766;6.606;2022-10-31T07:38:18;10.80;99.90
61807;DHT22;47726;52.766;6.606;2022-10-31T07:40:49;10.90;99.90
61807;DHT22;47726;52.766;6.606;2022-10-31T07:43:15;10.90;99.90
61807;DHT22;47726;52.766;6.606;2022-10-31T07:45:41;10.90;99.90
61807;DHT22;47726;52.766;6.606;2022-10-31T07:48:07;10.90;99.90
61807;DHT22;47726;52.766;6.606;2022-10-31T07:50:33;11.00;99.90
61807;DHT22;47726;52.766;6.606;2022-10-31T07:53:07;11.00;99.90
61807;DHT22;47726;52.766;6.606;2022-10-31T07:55:33;11.00;99.90
61807;DHT22;47726;52.766;6.606;2022-10-31T07:58:04;11.10;99.90
61807;DHT22;47726;52.766;6.606;2022-10-31T08:00:31;11.10;99.90
61807;DHT22;47726;52.766;6.606;2022-10-31T08:05:23;11.20;99.90
61807;DHT22;47726;52.766;6.606;2022-10-31T08:07:49;11.20;99.90
61807;DHT22;47726;52.766;6.606;2022-10-31T08:10:14;11.20;99.90
61807;DHT22;47726;52.766;6.606;2022-10-31T08:12:40;11.30;99.90
61807;DHT22;47726;52.766;6.606;2022-10-31T08:15:06;11.30;99.90
61807;DHT22;47726;52.766;6.606;2022-10-31T08:17:35;11.30;99.90
61807;DHT22;47726;52.766;6.606;2022-10-31T08:20:00;11.40;99.90
61807;DHT22;47726;52.766;6.606;2022-10-31T08:22:26;11.40;99.90
61807;DHT22;47726;52.766;6.606;2022-10-31T08:24:52;11.40;99.90
61807;DHT22;47726;52.766;6.606;2022-10-31T08:27:17;11.50;99.90
61807;DHT22;47726;52.766;6.606;2022-10-31T08:29:43;11.50;99.90
61807;DHT22;47726;52.766;6.606;2022-10-31T08:32:08;11.50;99.90
61807;DHT22;47726;52.766;6.606;2022-10-31T08:34:34;11.60;99.90
61807;DHT22;47726;52.766;6.606;2022-10-31T08:36:59;11.60;99.90
61807;DHT22;47726;52.766;6.606;2022-10-31T08:39:27;11.70;99.90
61807;DHT22;47726;52.766;6.606;2022-10-31T08:41:53;11.70;99.90
61807;DHT22;47726;52.766;6.606;2022-10-31T08:44:19;11.70;99.90
61807;DHT22;47726;52.766;6.606;2022-10-31T08:46:44;11.70;99.90
61807;DHT22;47726;52.766;6.606;2022-10-31T08:49:10;11.70;99.90
61807;DHT22;47726;52.766;6.606;2022-10-31T08:51:35;11.80;99.90
61807;DHT22;47726;52.766;6.606;2022-10-31T08:54:01;11.80;99.90
61807;DHT22;47726;52.766;6.606;2022-10-31T08:56:26;11.80;99.90
61807;DHT22;47726;52.766;6.606;2022-10-31T08:58:53;11.90;99.90
61807;DHT22;47726;52.766;6.606;2022-10-31T09:01:19;11.90;99.90
61807;DHT22;47726;52.766;6.606;2022-10-31T09:03:44;11.90;99.90
61807;DHT22;47726;52.766;6.606;2022-10-31T09:06:10;12.00;99.90
61807;DHT22;47726;52.766;6.606;2022-10-31T09:08:36;12.00;99.90
61807;DHT22;47726;52.766;6.606;2022-10-31T09:11:02;12.00;99.90
61807;DHT22;47726;52.766;6.606;2022-10-31T09:13:27;12.00;99.90
61807;DHT22;47726;52.766;6.606;2022-10-31T09:15:53;12.10;99.90
61807;DHT22;47726;52.766;6.606;2022-10-31T09:18:21;12.10;99.90
61807;DHT22;47726;52.766;6.606;2022-10-31T09:20:47;12.10;99.90
61807;DHT22;47726;52.766;6.606;2022-10-31T09:23:15;12.20;99.90
61807;DHT22;47726;52.766;6.606;2022-10-31T09:25:41;12.20;99.90
61807;DHT22;47726;52.766;6.606;2022-10-31T09:28:11;12.20;99.90
61807;DHT22;47726;52.766;6.606;2022-10-31T09:30:37;12.30;99.90
61807;DHT22;47726;52.766;6.606;2022-10-31T09:33:11;12.30;99.90
61807;DHT22;47726;52.766;6.606;2022-10-31T09:35:37;12.30;99.90
61807;DHT22;47726;52.766;6.606;2022-10-31T09:38:05;12.40;99.90
61807;DHT22;47726;52.766;6.606;2022-10-31T09:40:38;12.50;99.90
61807;DHT22;47726;52.766;6.606;2022-10-31T09:46:29;12.60;99.90
61807;DHT22;47726;52.766;6.606;2022-10-31T09:52:10;12.70;99.90
61807;DHT22;47726;52.766;6.606;2022-10-31T09:55:04;12.80;99.90
61807;DHT22;47726;52.766;6.606;2022-10-31T09:57:36;12.90;99.90
61807;DHT22;47726;52.766;6.606;2022-10-31T10:00:06;12.90;99.90
61807;DHT22;47726;52.766;6.606;2022-10-31T10:03:16;13.00;99.90
61807;DHT22;47726;52.766;6.606;2022-10-31T10:05:41;13.00;99.90
61807;DHT22;47726;52.766;6.606;2022-10-31T10:08:18;13.00;99.90
61807;DHT22;47726;52.766;6.606;2022-10-31T10:23:57;13.50;99.90
61807;DHT22;47726;52.766;6.606;2022-10-31T10:26:38;13.50;99.90
61807;DHT22;47726;52.766;6.606;2022-10-31T10:29:50;13.60;99.90
61807;DHT22;47726;52.766;6.606;2022-10-31T10:32:30;13.70;99.90
61807;DHT22;47726;52.766;6.606;2022-10-31T10:37:45;13.90;99.90
61807;DHT22;47726;52.766;6.606;2022-10-31T10:40:17;13.90;99.90
61807;DHT22;47726;52.766;6.606;2022-10-31T10:45:39;14.10;99.90
61807;DHT22;47726;52.766;6.606;2022-10-31T10:50:55;14.20;99.90
61807;DHT22;47726;52.766;6.606;2022-10-31T10:53:52;14.30;99.90
61807;DHT22;47726;52.766;6.606;2022-10-31T10:59:25;14.30;99.90
61807;DHT22;47726;52.766;6.606;2022-10-31T11:01:52;14.40;99.90
61807;DHT22;47726;52.766;6.606;2022-10-31T11:07:13;14.50;99.90
61807;DHT22;47726;52.766;6.606;2022-10-31T11:09:38;14.60;99.90
61807;DHT22;47726;52.766;6.606;2022-10-31T11:12:25;14.60;99.90
61807;DHT22;47726;52.766;6.606;2022-10-31T11:14:56;14.60;99.90
61807;DHT22;47726;52.766;6.606;2022-10-31T11:17:34;14.60;99.90
61807;DHT22;47726;52.766;6.606;2022-10-31T11:22:37;14.60;99.90
61807;DHT22;47726;52.766;6.606;2022-10-31T11:25:22;14.60;99.90
61807;DHT22;47726;52.766;6.606;2022-10-31T11:28:02;14.60;99.90
61807;DHT22;47726;52.766;6.606;2022-10-31T11:30:29;14.70;99.90
61807;DHT22;47726;52.766;6.606;2022-10-31T11:32:56;14.70;99.90
61807;DHT22;47726;52.766;6.606;2022-10-31T11:35:24;14.70;99.90
61807;DHT22;47726;52.766;6.606;2022-10-31T11:37:51;14.70;99.90
61807;DHT22;47726;52.766;6.606;2022-10-31T11:40:21;14.70;99.90
61807;DHT22;47726;52.766;6.606;2022-10-31T11:42:48;14.80;99.90
61807;DHT22;47726;52.766;6.606;2022-10-31T11:47:51;14.80;99.90
61807;DHT22;47726;52.766;6.606;2022-10-31T11:50:23;14.90;99.90
61807;DHT22;47726;52.766;6.606;2022-10-31T11:52:50;15.00;99.90
61807;DHT22;47726;52.766;6.606;2022-10-31T11:55:29;15.00;99.90
61807;DHT22;47726;52.766;6.606;2022-10-31T11:57:55;15.10;99.90
61807;DHT22;47726;52.766;6.606;2022-10-31T12:00:24;15.10;99.90
61807;DHT22;47726;52.766;6.606;2022-10-31T12:02:50;15.10;99.90
61807;DHT22;47726;52.766;6.606;2022-10-31T12:05:23;15.10;99.90
61807;DHT22;47726;52.766;6.606;2022-10-31T12:07:55;15.20;99.90
61807;DHT22;47726;52.766;6.606;2022-10-31T12:10:39;15.10;99.90
61807;DHT22;47726;52.766;6.606;2022-10-31T12:13:34;15.20;99.90
61807;DHT22;47726;52.766;6.606;2022-10-31T12:16:09;15.20;99.90
61807;DHT22;47726;52.766;6.606;2022-10-31T12:24:18;15.20;99.90
61807;DHT22;47726;52.766;6.606;2022-10-31T12:29:57;15.20;99.90
61807;DHT22;47726;52.766;6.606;2022-10-31T12:47:13;15.40;99.90
61807;DHT22;47726;52.766;6.606;2022-10-31T12:50:01;15.40;99.90
61807;DHT22;47726;52.766;6.606;2022-10-31T12:55:41;15.50;99.90
61807;DHT22;47726;52.766;6.606;2022-10-31T12:58:27;15.50;99.90
61807;DHT22;47726;52.766;6.606;2022-10-31T13:01:19;15.50;99.90
61807;DHT22;47726;52.766;6.606;2022-10-31T13:03:51;15.60;99.90
61807;DHT22;47726;52.766;6.606;2022-10-31T13:06:24;15.60;99.90
61807;DHT22;47726;52.766;6.606;2022-10-31T13:08:59;15.70;99.90
61807;DHT22;47726;52.766;6.606;2022-10-31T13:14:54;15.70;99.90
61807;DHT22;47726;52.766;6.606;2022-10-31T13:17:38;15.80;99.90
61807;DHT22;47726;52.766;6.606;2022-10-31T13:20:30;15.80;99.90
61807;DHT22;47726;52.766;6.606;2022-10-31T13:23:34;15.80;99.90
61807;DHT22;47726;52.766;6.606;2022-10-31T13:26:11;15.90;99.90
61807;DHT22;47726;52.766;6.606;2022-10-31T13:28:43;15.90;99.90
61807;DHT22;47726;52.766;6.606;2022-10-31T13:31:17;15.90;99.90
61807;DHT22;47726;52.766;6.606;2022-10-31T13:33:51;16.00;99.90
61807;DHT22;47726;52.766;6.606;2022-10-31T13:42:53;16.00;99.90
61807;DHT22;47726;52.766;6.606;2022-10-31T13:45:25;16.00;99.90
61807;DHT22;47726;52.766;6.606;2022-10-31T13:48:17;16.00;99.90
61807;DHT22;47726;52.766;6.606;2022-10-31T13:50:55;16.00;99.90
61807;DHT22;47726;52.766;6.606;2022-10-31T13:53:22;16.10;99.90
61807;DHT22;47726;52.766;6.606;2022-10-31T13:56:02;16.10;99.90
61807;DHT22;47726;52.766;6.606;2022-10-31T13:58:32;16.10;99.90
61807;DHT22;47726;52.766;6.606;2022-10-31T14:03:46;16.10;99.90
61807;DHT22;47726;52.766;6.606;2022-10-31T14:06:16;16.10;99.90
61807;DHT22;47726;52.766;6.606;2022-10-31T14:08:51;16.10;99.90
61807;DHT22;47726;52.766;6.606;2022-10-31T14:11:27;16.10;99.90
61807;DHT22;47726;52.766;6.606;2022-10-31T14:14:18;16.10;99.90
61807;DHT22;47726;52.766;6.606;2022-10-31T14:16:54;16.10;99.90
61807;DHT22;47726;52.766;6.606;2022-10-31T14:19:21;16.10;99.90
61807;DHT22;47726;52.766;6.606;2022-10-31T14:21:50;16.10;99.90
61807;DHT22;47726;52.766;6.606;2022-10-31T14:27:02;16.10;99.90
61807;DHT22;47726;52.766;6.606;2022-10-31T14:29:32;16.10;99.90
61807;DHT22;47726;52.766;6.606;2022-10-31T14:32:06;16.10;99.90
61807;DHT22;47726;52.766;6.606;2022-10-31T14:34:56;16.10;99.90
61807;DHT22;47726;52.766;6.606;2022-10-31T14:37:50;16.10;99.90
61807;DHT22;47726;52.766;6.606;2022-10-31T14:40:33;16.10;99.90
61807;DHT22;47726;52.766;6.606;2022-10-31T14:43:31;16.10;99.90
61807;DHT22;47726;52.766;6.606;2022-10-31T14:46:25;16.10;99.90
61807;DHT22;47726;52.766;6.606;2022-10-31T14:51:48;16.00;99.90
61807;DHT22;47726;52.766;6.606;2022-10-31T14:54:20;16.00;99.90
61807;DHT22;47726;52.766;6.606;2022-10-31T14:56:53;16.00;99.90
61807;DHT22;47726;52.766;6.606;2022-10-31T14:59:28;16.00;99.90
61807;DHT22;47726;52.766;6.606;2022-10-31T15:02:12;16.00;99.90
61807;DHT22;47726;52.766;6.606;2022-10-31T15:04:40;16.00;99.90
61807;DHT22;47726;52.766;6.606;2022-10-31T15:07:12;16.00;99.90
61807;DHT22;47726;52.766;6.606;2022-10-31T15:09:40;16.00;99.90
61807;DHT22;47726;52.766;6.606;2022-10-31T15:12:29;16.00;99.90
61807;DHT22;47726;52.766;6.606;2022-10-31T15:14:55;15.90;99.90
61807;DHT22;47726;52.766;6.606;2022-10-31T15:17:23;15.90;99.90
61807;DHT22;47726;52.766;6.606;2022-10-31T15:19:50;15.90;99.90
61807;DHT22;47726;52.766;6.606;2022-10-31T15:22:18;15.90;99.90
61807;DHT22;47726;52.766;6.606;2022-10-31T15:24:45;15.90;99.90
61807;DHT22;47726;52.766;6.606;2022-10-31T15:27:16;15.80;99.90
61807;DHT22;47726;52.766;6.606;2022-10-31T15:29:55;15.80;99.90
61807;DHT22;47726;52.766;6.606;2022-10-31T15:32:26;15.80;99.90
61807;DHT22;47726;52.766;6.606;2022-10-31T15:34:53;15.80;99.90
61807;DHT22;47726;52.766;6.606;2022-10-31T15:37:20;15.80;99.90
61807;DHT22;47726;52.766;6.606;2022-10-31T15:39:47;15.80;99.90
61807;DHT22;47726;52.766;6.606;2022-10-31T15:42:35;15.70;99.90
61807;DHT22;47726;52.766;6.606;2022-10-31T15:47:35;15.70;99.90
61807;DHT22;47726;52.766;6.606;2022-10-31T15:50:02;15.70;99.90
61807;DHT22;47726;52.766;6.606;2022-10-31T15:52:36;15.60;99.90
61807;DHT22;47726;52.766;6.606;2022-10-31T15:57:39;15.60;99.90
61807;DHT22;47726;52.766;6.606;2022-10-31T16:00:06;15.60;99.90
61807;DHT22;47726;52.766;6.606;2022-10-31T16:02:32;15.50;99.90
61807;DHT22;47726;52.766;6.606;2022-10-31T16:04:59;15.50;99.90
61807;DHT22;47726;52.766;6.606;2022-10-31T16:07:27;15.50;99.90
61807;DHT22;47726;52.766;6.606;2022-10-31T16:10:02;15.40;99.90
61807;DHT22;47726;52.766;6.606;2022-10-31T16:12:44;15.40;99.90
61807;DHT22;47726;52.766;6.606;2022-10-31T16:15:15;15.40;99.90
61807;DHT22;47726;52.766;6.606;2022-10-31T16:17:43;15.40;99.90
61807;DHT22;47726;52.766;6.606;2022-10-31T16:20:21;15.40;99.90
61807;DHT22;47726;52.766;6.606;2022-10-31T16:22:49;15.30;99.90
61807;DHT22;47726;52.766;6.606;2022-10-31T16:25:27;15.30;99.90
61807;DHT22;47726;52.766;6.606;2022-10-31T16:27:58;15.20;99.90
61807;DHT22;47726;52.766;6.606;2022-10-31T16:30:32;15.20;99.90
61807;DHT22;47726;52.766;6.606;2022-10-31T16:33:00;15.20;99.90
61807;DHT22;47726;52.766;6.606;2022-10-31T16:35:39;15.20;99.90
61807;DHT22;47726;52.766;6.606;2022-10-31T16:38:05;15.10;99.90
61807;DHT22;47726;52.766;6.606;2022-10-31T16:40:31;15.10;99.90
61807;DHT22;47726;52.766;6.606;2022-10-31T16:42:58;15.10;99.90
61807;DHT22;47726;52.766;6.606;2022-10-31T16:45:26;15.10;99.90
61807;DHT22;47726;52.766;6.606;2022-10-31T16:47:52;15.10;99.90
61807;DHT22;47726;52.766;6.606;2022-10-31T16:50:22;15.10;99.90
61807;DHT22;47726;52.766;6.606;2022-10-31T16:52:48;15.00;99.90
61807;DHT22;47726;52.766;6.606;2022-10-31T16:55:14;15.00;99.90
61807;DHT22;47726;52.766;6.606;2022-10-31T16:57:48;15.00;99.90
61807;DHT22;47726;52.766;6.606;2022-10-31T17:00:21;15.00;99.90
61807;DHT22;47726;52.766;6.606;2022-10-31T17:02:47;15.00;99.90
61807;DHT22;47726;52.766;6.606;2022-10-31T17:05:15;15.00;99.90
61807;DHT22;47726;52.766;6.606;2022-10-31T17:07:41;14.90;99.90
61807;DHT22;47726;52.766;6.606;2022-10-31T17:10:08;14.90;99.90
61807;DHT22;47726;52.766;6.606;2022-10-31T17:12:35;14.90;99.90
61807;DHT22;47726;52.766;6.606;2022-10-31T17:15:01;14.90;99.90
61807;DHT22;47726;52.766;6.606;2022-10-31T17:17:26;14.90;99.90
61807;DHT22;47726;52.766;6.606;2022-10-31T17:19:52;14.90;99.90
61807;DHT22;47726;52.766;6.606;2022-10-31T17:22:18;14.90;99.90
61807;DHT22;47726;52.766;6.606;2022-10-31T17:24:43;14.90;99.90
61807;DHT22;47726;52.766;6.606;2022-10-31T17:27:10;14.90;99.90
61807;DHT22;47726;52.766;6.606;2022-10-31T17:29:35;14.80;99.90
61807;DHT22;47726;52.766;6.606;2022-10-31T17:32:01;14.80;99.90
61807;DHT22;47726;52.766;6.606;2022-10-31T17:34:29;14.80;99.90
61807;DHT22;47726;52.766;6.606;2022-10-31T17:36:54;14.80;99.90
61807;DHT22;47726;52.766;6.606;2022-10-31T17:39:20;14.80;99.90
61807;DHT22;47726;52.766;6.606;2022-10-31T17:41:49;14.80;99.90